Date,TemperatureHighF,TemperatureAvgF,TemperatureLowF,DewpointHighF,DewpointAvgF,DewpointLowF,HumidityHigh,HumidityAvg,HumidityLow,PressureMaxIn,PressureMinIn,WindSpeedMaxMPH,WindSpeedAvgMPH,GustSpeedMaxMPH,PrecipitationSumIn
2013-1-1,31,16,-14,19,4,-22,75,58,41,0.00,40.00,9,5,19,0.06
2013-1-2,45,18,-20,6,-4,-29,75,43,17,0.00,40.00,9,4,14,0.01
2013-1-3,40,21,-9,-1,-4,-16,75,35,13,0.00,40.00,19,9,31,0.00
2013-1-4,41,18,-12,8,-5,-19,73,42,13,0.00,40.00,13,4,16,0.00
2013-1-5,48,24,-15,7,-6,-23,76,37,9,0.00,40.00,8,3,10,0.00
2013-1-6,43,29,-2,9,4,-9,72,36,23,0.00,40.00,17,8,25,0.00
2013-1-7,44,27,2,17,8,-4,80,46,25,0.00,40.00,13,7,21,0.00
2013-1-8,49,32,-3,20,10,-10,76,44,22,0.00,40.00,12,7,20,0.00
2013-1-9,54,36,7,19,12,2,86,43,15,0.00,40.00,10,7,16,0.00
2013-1-10,41,33,20,20,16,12,78,51,35,0.00,40.00,20,13,38,0.00
2013-1-11,24,17,-13,14,0,-21,78,51,24,0.00,40.00,13,10,29,0.00
2013-1-12,24,10,-16,3,-8,-100,69,47,28,0.00,40.00,10,4,18,0.00
2013-1-13,28,7,-22,1,-10,-31,70,49,24,0.00,40.00,9,3,17,0.00
2013-1-14,23,8,-5,0,-6,-19,76,55,31,0.00,40.00,13,5,18,0.00
2013-1-15,36,17,-10,8,-3,-20,59,42,28,0.00,40.00,15,10,22,0.00
2013-1-16,47,23,1,24,10,-4,81,58,31,0.00,40.00,14,3,17,0.00
2013-1-17,50,32,3,17,12,-2,79,47,26,0.00,40.00,11,5,15,0.00
2013-1-18,54,29,2,20,12,-3,82,55,21,0.00,40.00,5,3,9,0.00
2013-1-19,52,30,-2,18,9,-8,84,50,19,0.00,40.00,8,4,12,0.00
2013-1-20,52,32,-6,13,3,-12,82,38,12,0.00,40.00,8,4,13,0.00
2013-1-21,53,34,-2,12,3,-9,82,37,13,0.00,40.00,11,6,16,0.00
2013-1-22,57,35,1,21,8,-6,82,43,13,0.00,40.00,8,4,12,0.00
2013-1-23,56,36,6,29,16,1,86,53,19,0.00,40.00,9,3,18,0.00
2013-1-24,45,36,30,36,32,26,98,85,57,0.00,40.00,13,4,21,0.03
2013-1-25,49,39,35,41,37,34,98,93,73,0.00,40.00,5,2,8,0.25
2013-1-26,42,39,37,40,37,35,98,95,88,0.00,40.00,9,6,17,1.25
2013-1-27,43,38,34,37,34,29,97,88,75,0.00,40.00,16,8,26,0.44
2013-1-28,34,27,16,31,22,13,96,82,56,0.00,40.00,16,10,32,0.08
2013-1-29,30,19,-2,20,11,-7,88,73,55,0.00,40.00,19,9,31,0.10
2013-1-30,40,26,3,22,15,-1,83,64,45,0.00,40.00,14,8,23,0.01
2013-1-31,53,34,6,27,16,2,88,53,20,0.00,40.00,8,4,12,0.00
2013-2-1,53,30,11,23,15,7,89,62,20,0.00,40.00,10,3,18,0.00
2013-2-2,59,34,18,26,18,10,87,60,14,0.00,40.00,7,2,11,0.00
2013-2-3,43,34,25,35,28,22,94,79,61,0.00,40.00,6,3,17,0.02
2013-2-4,55,34,19,29,22,16,94,67,30,0.00,40.00,8,3,12,0.01
2013-2-5,58,35,17,27,18,14,89,60,19,0.00,40.00,9,2,14,0.00
2013-2-6,50,33,22,32,24,19,91,74,39,0.00,40.00,10,3,20,0.00
2013-2-7,49,32,17,29,21,14,90,69,34,0.00,40.00,8,3,16,0.00
2013-2-8,40,33,26,28,20,6,85,62,28,0.00,40.00,22,13,40,0.00
2013-2-9,26,23,20,21,18,17,90,83,69,0.00,40.00,14,8,22,0.11
2013-2-10,25,18,-12,21,13,-19,87,81,70,0.00,40.00,14,7,24,0.01
2013-2-11,29,5,-20,19,-4,-28,85,66,46,0.00,40.00,10,3,17,0.07
2013-2-12,37,12,-18,16,-2,-26,79,57,27,0.00,40.00,11,4,16,0.02
2013-2-13,57,21,-3,20,6,-100,83,59,23,0.00,40.00,13,4,20,0.00
2013-2-14,47,26,4,19,11,-1,82,57,30,0.00,40.00,17,5,24,0.00
2013-2-15,51,31,9,17,6,-2,85,45,12,0.00,40.00,14,7,23,0.00
2013-2-16,58,34,8,18,7,2,85,46,10,0.00,40.00,7,3,13,0.00
2013-2-17,50,34,14,24,11,7,85,45,19,0.00,40.00,14,6,25,0.00
2013-2-18,50,31,13,19,12,6,85,54,16,0.00,40.00,10,3,16,0.00
2013-2-19,44,30,17,19,13,6,87,54,24,0.00,40.00,16,9,28,0.00
2013-2-20,32,26,19,24,20,15,92,79,57,0.00,40.00,12,8,23,0.09
2013-2-21,33,24,7,22,20,2,92,82,51,0.00,40.00,12,7,20,0.10
2013-2-22,35,18,-9,12,3,-16,85,57,32,0.00,40.00,13,6,21,0.02
2013-2-23,41,26,5,20,12,0,84,58,33,0.00,40.00,19,9,32,0.00
2013-2-24,30,23,14,15,6,0,73,49,32,0.00,40.00,20,12,32,0.00
2013-2-25,46,27,6,15,6,0,81,49,16,0.00,40.00,10,5,17,0.00
2013-2-26,36,26,13,12,6,-3,83,45,27,0.00,40.00,19,9,29,0.00
2013-2-27,42,27,8,9,0,-7,75,35,13,0.00,40.00,12,6,18,0.00
2013-2-28,47,32,15,14,3,-4,73,35,12,0.00,40.00,15,6,21,0.00
2013-3-1,58,39,19,21,17,11,80,45,21,0.00,40.00,12,7,28,0.00
2013-3-2,65,39,18,26,19,14,88,55,14,0.00,40.00,10,3,17,0.00
2013-3-3,54,39,20,29,21,16,88,54,25,0.00,40.00,16,6,28,0.00
2013-3-4,53,40,22,28,22,18,86,51,29,0.00,40.00,12,6,20,0.00
2013-3-5,52,36,18,27,19,15,89,55,25,0.00,40.00,11,5,18,0.00
2013-3-6,55,42,30,27,22,16,77,47,21,0.00,40.00,18,10,31,0.00
2013-3-7,53,41,18,23,20,14,86,47,24,0.00,40.00,18,10,32,0.00
2013-3-8,40,32,20,32,26,18,95,83,50,0.00,40.00,15,8,28,0.19
2013-3-9,34,28,24,29,25,21,94,89,76,0.00,40.00,12,9,20,0.18
2013-3-10,46,35,25,27,20,13,94,58,29,0.00,40.00,16,10,27,0.02
2013-3-11,55,35,15,23,17,12,87,55,20,0.00,40.00,9,4,17,0.01
2013-3-12,64,40,19,26,21,16,87,55,19,0.00,40.00,8,4,16,0.00
2013-3-13,68,44,22,30,22,19,89,53,18,0.00,40.00,10,4,18,0.00
2013-3-14,72,48,22,30,21,18,86,47,13,0.00,40.00,9,4,17,0.00
2013-3-15,67,46,25,32,22,16,87,51,14,0.00,40.00,12,5,19,0.00
2013-3-16,63,43,24,33,26,22,92,60,21,0.00,40.00,13,5,29,0.00
2013-3-17,62,43,21,33,11,-1,93,40,8,0.00,40.00,16,8,27,0.00
2013-3-18,60,42,18,20,12,5,78,38,11,0.00,40.00,13,6,26,0.00
2013-3-19,61,43,27,28,20,14,75,47,18,0.00,40.00,10,4,18,0.00
2013-3-20,58,44,24,27,23,19,84,49,28,0.00,40.00,18,8,30,0.00
2013-3-21,60,46,20,34,16,1,89,38,10,0.00,40.00,15,7,26,0.00
2013-3-22,58,41,18,20,4,-23,77,33,5,0.00,40.00,18,8,37,0.00
2013-3-23,43,33,17,4,-4,-12,56,22,11,0.00,40.00,17,9,28,0.00
2013-3-24,52,33,11,7,5,-2,75,37,14,0.00,40.00,17,7,30,0.00
2013-3-25,59,40,14,19,12,5,76,37,16,0.00,40.00,13,6,22,0.00
2013-3-26,59,43,19,22,16,13,82,40,17,0.00,40.00,18,8,33,0.00
2013-3-27,58,39,16,23,16,11,80,48,17,0.00,40.00,13,6,23,0.00
2013-3-28,61,52,26,23,22,19,74,34,22,0.00,40.00,15,10,26,0.00
2013-3-29,65,44,20,28,22,17,87,51,19,0.00,40.00,10,4,21,0.00
2013-3-30,61,43,24,30,24,19,83,53,23,0.00,40.00,11,4,20,0.00
2013-3-31,63,46,21,33,24,18,89,49,21,0.00,40.00,14,6,29,0.00
2013-4-1,59,45,20,32,21,13,89,44,19,0.00,40.00,17,9,31,0.00
2013-4-2,53,41,15,25,21,10,80,47,28,0.00,40.00,15,8,29,0.00
2013-4-3,62,44,18,27,18,12,88,46,14,0.00,40.00,13,6,30,0.00
2013-4-4,67,45,19,26,18,12,77,42,15,0.00,40.00,11,5,21,0.00
2013-4-5,64,51,26,29,22,14,77,37,14,0.00,40.00,20,10,32,0.00
2013-4-6,64,48,21,31,24,16,83,43,20,0.00,40.00,12,5,22,0.00
2013-4-7,64,49,21,29,23,17,84,41,17,0.00,40.00,17,7,29,0.00
2013-4-8,47,40,31,33,26,17,88,59,34,0.00,40.00,27,14,51,0.07
2013-4-9,40,32,27,28,22,15,93,70,41,0.00,40.00,18,12,32,0.01
2013-4-10,50,37,25,23,16,11,77,44,23,0.00,40.00,15,9,26,0.01
2013-4-11,57,44,17,23,19,13,85,41,22,0.00,40.00,13,6,30,0.00
2013-4-12,63,42,18,29,19,13,84,49,16,0.00,40.00,12,4,20,0.00
2013-4-13,65,49,20,26,20,16,86,38,18,0.00,40.00,19,11,31,0.00
2013-4-14,63,53,43,27,24,21,44,34,21,0.00,40.00,20,15,33,0.00
2013-4-15,61,50,39,31,28,24,61,45,26,0.00,40.00,22,15,43,0.00
2013-4-16,52,44,31,32,25,11,76,50,20,0.00,40.00,25,17,45,0.00
2013-4-17,41,33,18,24,14,0,90,51,18,0.00,40.00,16,9,29,0.00
2013-4-18,48,34,9,5,1,-2,72,28,12,0.00,40.00,16,9,27,0.00
2013-4-19,59,44,8,8,4,-3,65,24,11,0.00,40.00,11,6,23,0.00
2013-4-20,62,48,15,17,10,3,66,26,9,0.00,40.00,15,9,29,0.00
2013-4-21,68,49,18,18,13,9,67,30,10,0.00,40.00,17,6,27,0.00
2013-4-22,71,55,22,21,17,9,63,26,15,0.00,40.00,17,9,31,0.00
2013-4-24,65,49,13,18,12,-3,51,26,14,0.00,40.00,17,8,32,0.00
2013-4-25,61,48,22,24,17,10,66,34,13,0.00,40.00,12,7,24,0.00
2013-4-26,66,51,20,26,17,12,81,32,13,0.00,40.00,13,6,28,0.00
2013-4-27,69,52,20,15,8,-3,64,23,6,0.00,40.00,11,6,30,0.00
2013-4-28,75,57,23,17,12,5,53,22,8,0.00,40.00,11,4,22,0.00
2013-4-29,78,61,24,26,16,12,64,23,9,0.00,40.00,11,6,26,0.00
2013-4-30,73,63,32,18,12,8,55,15,9,0.00,40.00,22,14,41,0.00
2013-5-1,67,56,31,23,8,-15,48,17,5,0.00,40.00,15,8,24,0.00
2013-5-2,62,47,20,8,3,-6,33,17,8,0.00,40.00,23,11,35,0.00
2013-5-3,70,53,21,9,3,-2,41,16,6,0.00,40.00,11,6,20,0.00
2013-5-4,68,54,18,16,10,2,52,20,10,0.00,40.00,13,7,27,0.00
2013-5-5,63,51,28,21,17,9,48,27,19,0.00,40.00,15,9,24,0.00
2013-5-6,56,48,30,42,32,21,78,54,36,0.00,40.00,15,8,30,0.03
2013-5-7,51,42,29,41,34,27,93,75,51,0.00,40.00,13,7,31,0.24
2013-5-8,58,42,24,35,28,22,94,63,30,0.00,40.00,13,4,31,0.05
2013-5-9,61,44,26,35,30,24,93,63,27,0.00,40.00,15,5,26,0.01
2013-5-10,66,49,25,37,26,-100,93,51,21,0.00,40.00,20,6,30,0.01
2013-5-14,79,64,32,32,27,23,71,30,13,0.00,40.00,13,6,28,0.00
2013-5-15,72,56,30,27,17,6,74,29,8,0.00,40.00,23,9,39,0.00
2013-5-16,74,50,26,27,2,-100,53,25,10,0.00,40.00,18,9,35,0.00
2013-5-17,66,53,28,28,18,-100,64,32,17,0.00,40.00,20,10,33,0.00
2013-5-18,66,51,23,33,24,16,73,39,19,0.00,40.00,13,6,25,0.00
2013-5-19,69,54,26,31,21,16,77,34,13,0.00,40.00,19,9,36,0.00
2013-5-20,64,49,20,26,22,14,77,38,19,0.00,40.00,14,7,27,0.00
2013-5-21,73,56,24,29,20,13,75,30,13,0.00,40.00,13,6,24,0.00
2013-5-22,73,63,28,25,20,13,54,21,12,0.00,40.00,22,14,39,0.00
2013-5-26,72,61,24,22,15,8,58,19,11,0.00,40.00,18,11,30,0.00
2013-5-27,72,60,25,22,19,9,51,22,12,0.00,40.00,15,7,26,0.00
2013-5-28,70,59,26,31,27,15,63,31,19,0.00,40.00,19,11,32,0.00
2013-5-29,72,60,26,31,26,21,83,31,18,0.00,40.00,19,10,37,0.00
2013-5-30,76,65,31,39,32,20,67,32,21,0.00,40.00,16,10,28,0.00
2013-5-31,79,67,33,43,30,13,78,30,15,0.00,40.00,12,7,22,0.00
2013-6-1,82,69,33,20,15,11,43,14,8,0.00,40.00,12,7,31,0.00
2013-6-4,79,67,31,30,20,12,61,20,9,0.00,40.00,16,8,32,0.00
2013-6-5,84,68,32,29,23,15,51,21,9,0.00,40.00,10,6,22,0.00
2013-6-6,86,65,34,30,20,15,56,24,7,0.00,40.00,12,6,23,0.00
2013-6-7,86,66,38,28,19,7,49,23,5,0.00,40.00,13,6,26,0.00
2013-6-8,91,70,36,28,21,18,49,21,7,0.00,40.00,13,6,25,0.00
2013-6-9,90,70,38,32,24,19,53,23,9,0.00,40.00,15,6,25,0.00
2013-6-10,84,70,38,28,13,2,46,15,5,0.00,40.00,20,10,37,0.00
2013-6-14,82,74,45,32,26,20,47,19,12,0.00,40.00,19,11,35,0.00
2013-6-15,82,74,49,39,34,26,50,24,17,0.00,40.00,19,12,36,0.00
2013-6-16,82,74,47,33,27,21,46,19,12,0.00,40.00,16,10,30,0.00
2013-6-17,82,74,43,29,18,3,44,14,5,0.00,40.00,15,10,30,0.00
2013-6-18,82,72,40,19,16,10,31,12,9,0.00,40.00,16,11,30,0.00
2013-6-19,79,70,59,24,17,10,21,14,9,0.00,40.00,19,14,34,0.00
2013-6-20,80,69,42,24,18,15,37,16,10,0.00,40.00,17,12,31,0.00
2013-6-21,78,77,75,19,18,15,11,11,10,0.00,40.00,17,16,31,0.00
2013-6-22,80,74,57,26,22,18,29,15,10,0.00,40.00,16,12,29,0.00
2013-6-23,79,71,42,27,20,13,39,16,10,0.00,40.00,19,12,34,0.00
2013-6-24,76,66,47,35,26,20,45,24,12,0.00,40.00,20,12,39,0.00
2013-6-25,81,70,44,31,26,20,41,21,14,0.00,40.00,15,9,25,0.00
2013-6-26,86,77,47,30,25,20,41,16,11,0.00,40.00,11,8,20,0.00
2013-6-27,91,81,45,38,30,21,48,18,9,0.00,40.00,11,6,20,0.00
2013-6-28,93,76,53,37,33,30,46,23,11,0.00,40.00,20,8,37,0.00
2013-6-29,91,74,50,40,36,33,53,28,13,0.00,40.00,11,5,31,0.05
2013-6-30,90,81,59,42,37,31,52,23,14,0.00,40.00,15,8,46,0.05
2013-7-1,89,78,52,48,42,37,63,30,17,0.00,40.00,14,7,21,0.00
2013-7-2,87,71,55,57,51,41,94,53,26,0.00,40.00,14,7,41,0.03
2013-7-3,87,70,51,56,49,43,98,52,25,0.00,40.00,18,7,50,0.17
2013-7-4,87,75,54,51,46,41,79,38,21,0.00,40.00,12,8,23,0.03
2013-7-5,82,74,57,54,49,45,81,45,28,0.00,40.00,13,8,23,0.03
2013-7-6,81,62,51,57,50,45,99,68,33,0.00,40.00,13,4,21,0.10
2013-7-7,85,68,46,57,46,39,100,55,21,0.00,40.00,12,5,24,0.01
2013-7-8,89,72,48,48,39,-100,86,38,15,0.00,40.00,11,5,27,0.00
2013-7-9,89,77,49,42,33,28,68,23,12,0.00,40.00,11,6,26,0.00
2013-7-10,88,65,54,58,44,-100,87,53,17,0.00,40.00,9,5,19,0.06
2013-7-11,75,64,53,59,56,52,100,76,49,0.00,40.00,14,6,26,0.02
2013-7-12,77,59,45,58,52,45,100,81,35,0.00,40.00,11,4,21,0.01
2013-7-13,78,62,45,58,52,45,100,74,38,0.00,40.00,10,3,16,0.87
2013-7-14,81,64,53,58,53,48,99,71,32,0.00,40.00,10,4,24,0.01
2013-7-15,80,63,50,60,53,50,99,75,37,0.00,40.00,11,4,23,0.13
2013-7-16,73,65,57,59,56,53,97,75,50,0.00,40.00,9,5,18,0.01
2013-7-17,77,63,51,62,57,51,99,83,42,0.00,40.00,10,4,19,0.16
2013-7-18,78,64,52,60,56,52,99,81,43,0.00,40.00,13,5,25,0.39
2013-7-19,78,62,51,60,56,51,100,82,45,0.00,40.00,12,4,26,0.98
2013-7-20,79,64,54,61,55,-100,99,78,44,0.00,40.00,12,4,22,0.24
2013-7-21,73,62,56,61,58,54,99,86,63,0.00,40.00,10,4,19,1.45
2013-7-22,70,62,56,63,59,55,99,91,69,0.00,40.00,9,3,19,0.48
2013-7-23,75,62,51,61,58,51,100,87,55,0.00,40.00,9,4,20,0.07
2013-7-24,80,64,49,60,55,49,100,76,43,0.00,40.00,14,5,23,0.04
2013-7-25,81,65,54,61,58,53,98,81,45,0.00,40.00,12,4,20,0.00
2013-7-26,78,64,53,61,57,53,99,80,49,0.00,40.00,14,6,24,0.61
2013-7-27,75,63,54,61,56,53,99,83,51,0.00,40.00,11,4,23,0.78
2013-7-28,73,60,50,61,55,50,100,86,51,0.00,40.00,13,4,22,0.52
2013-7-29,77,64,50,56,51,45,99,69,36,0.00,40.00,15,6,24,0.05
2013-7-30,79,65,45,55,48,43,96,62,30,0.00,40.00,8,4,16,0.01
2013-7-31,83,66,48,56,50,46,98,64,30,0.00,40.00,9,4,20,0.05
2013-8-1,78,66,55,59,55,53,96,72,42,0.00,40.00,13,5,23,0.03
2013-8-2,78,66,51,57,52,43,99,66,29,0.00,40.00,12,5,24,0.02
2013-8-3,78,65,50,58,52,47,98,68,34,0.00,40.00,9,4,19,0.00
2013-8-4,80,66,51,55,50,44,98,64,31,0.00,40.00,12,4,22,0.00
2013-8-5,80,63,45,52,45,38,98,62,24,0.00,40.00,11,4,18,0.00
2013-8-6,68,59,55,55,53,51,94,81,54,0.00,40.00,6,2,17,0.16
2013-8-7,74,62,51,53,49,46,93,65,38,0.00,40.00,10,4,18,0.04
2013-8-8,78,63,40,48,38,30,98,51,20,0.00,40.00,9,4,18,0.04
2013-8-9,79,64,39,46,34,28,92,44,18,0.00,40.00,13,6,35,0.00
2013-8-10,78,64,42,46,35,29,89,43,17,0.00,40.00,14,7,25,0.00
2013-8-11,78,65,45,51,46,40,96,53,26,0.00,40.00,12,6,23,0.00
2013-8-12,81,70,45,52,42,37,94,44,23,0.00,40.00,10,6,20,0.00
2013-8-13,81,70,40,46,35,-100,88,34,19,0.00,40.00,10,6,25,0.00
2013-8-14,83,69,40,47,39,-100,83,42,23,0.00,40.00,12,6,19,0.00
2013-8-15,75,62,50,53,43,-100,81,56,37,0.00,40.00,11,4,19,0.00
2013-8-16,81,60,45,55,42,-100,98,64,30,0.00,40.00,7,3,14,0.16
2013-8-17,80,60,48,58,51,-100,99,77,33,0.00,40.00,13,4,19,0.62
2013-8-18,79,64,50,56,52,47,98,69,35,0.00,40.00,8,4,16,0.08
2013-8-19,80,58,50,56,47,-100,98,76,33,0.00,40.00,12,4,23,0.19
2013-8-20,81,63,45,55,49,45,99,68,30,0.00,40.00,8,3,19,0.01
2013-8-21,71,62,55,58,54,51,93,77,53,0.00,40.00,10,4,22,0.18
2013-8-22,77,63,50,56,52,49,97,73,37,0.00,40.00,11,3,22,0.06
2013-8-23,77,63,52,56,50,46,98,67,34,0.00,40.00,11,5,22,0.06
2013-8-24,70,57,51,55,50,-100,95,80,49,0.00,40.00,9,4,15,0.00
2013-8-25,61,57,54,58,55,53,98,94,88,0.00,40.00,7,3,11,0.46
2013-8-26,74,62,56,60,57,54,98,84,59,0.00,40.00,10,6,20,0.24
2013-8-27,73,60,54,58,56,53,99,88,56,0.00,40.00,11,4,18,0.53
2013-8-28,80,68,54,58,54,49,96,64,36,0.00,40.00,10,5,20,0.01
2013-8-29,72,60,48,62,56,48,99,89,60,0.00,40.00,9,3,18,0.06
2013-8-30,73,61,53,61,58,53,99,91,62,0.00,40.00,6,2,24,1.42
2013-8-31,68,60,54,62,57,-100,100,93,77,0.00,40.00,9,3,16,0.19
2013-9-1,77,61,49,61,55,49,100,83,47,0.00,40.00,13,3,19,0.02
2013-9-2,78,63,46,58,52,46,99,73,36,0.00,40.00,10,3,21,0.02
2013-9-3,82,66,51,58,52,47,98,67,30,0.00,40.00,9,4,21,0.03
2013-9-4,81,66,54,57,53,47,97,69,31,0.00,40.00,10,3,21,0.03
2013-9-5,80,64,49,58,50,43,99,68,28,0.00,40.00,9,3,19,0.02
2013-9-6,81,64,49,54,50,45,95,66,30,0.00,40.00,11,4,19,0.00
2013-9-7,73,61,55,56,53,-100,98,78,51,0.00,40.00,14,4,21,0.13
2013-9-8,66,57,53,56,55,53,99,92,63,0.00,40.00,8,3,14,0.42
2013-9-9,59,56,51,56,54,51,99,94,88,0.00,40.00,8,4,15,0.29
2013-9-10,63,56,51,54,53,51,99,88,68,0.00,40.00,11,5,19,0.36
2013-9-11,64,55,45,53,51,45,99,87,63,0.00,40.00,10,4,17,0.36
2013-9-12,72,56,39,51,45,39,99,72,35,0.00,40.00,10,3,15,0.01
2013-9-13,75,58,42,53,46,42,99,72,33,0.00,40.00,9,3,15,0.00
2013-9-14,73,56,43,56,47,-100,99,78,39,0.00,40.00,12,3,21,0.04
2013-9-15,75,57,41,53,47,41,99,75,34,0.00,40.00,6,2,14,0.01
2013-9-16,78,60,43,53,47,40,98,67,28,0.00,40.00,8,3,18,0.00
2013-9-17,75,62,45,56,50,44,98,70,43,0.00,40.00,13,5,27,0.00
2013-9-18,49,45,41,40,39,38,88,79,71,0.00,40.00,2,1,5,0.00
2013-9-19,75,56,36,45,38,35,96,60,23,0.00,40.00,12,4,18,0.00
2013-9-20,75,59,38,43,40,37,96,56,27,0.00,40.00,16,7,27,0.00
2013-9-21,71,63,43,50,44,-100,92,53,39,0.00,40.00,17,10,32,0.00
2013-9-22,61,55,33,47,33,20,83,47,20,0.00,40.00,23,13,39,0.00
2013-9-23,70,48,28,34,28,21,93,56,16,0.00,40.00,11,4,16,0.00
2013-9-24,72,60,28,34,31,26,93,39,21,0.00,40.00,12,7,26,0.00
2013-9-25,67,59,52,36,30,26,52,35,23,0.00,40.00,22,13,38,0.00
2013-9-26,64,54,45,38,32,21,68,44,27,0.00,40.00,29,15,52,0.00
2013-9-27,56,44,31,33,22,15,84,45,20,0.00,40.00,11,7,24,0.01
2013-9-28,67,44,20,31,20,-100,87,49,18,0.00,40.00,7,3,13,0.00
2013-9-29,71,50,24,33,28,20,85,49,19,0.00,40.00,10,4,19,0.00
2013-9-30,71,63,32,31,24,22,81,27,16,0.00,40.00,10,6,18,0.00
2013-10-1,67,62,48,27,25,25,44,25,20,0.00,40.00,10,7,18,0.00
2013-10-2,68,61,33,37,29,23,78,33,20,0.00,40.00,14,10,26,0.00
2013-10-3,65,56,43,39,30,22,76,39,24,0.00,40.00,21,13,35,0.00
2013-10-4,56,44,25,22,14,7,65,33,14,0.00,40.00,12,6,20,0.00
2013-10-5,59,45,31,20,16,12,52,32,19,0.00,40.00,13,8,21,0.00
2013-10-6,74,57,18,20,17,9,66,24,11,0.00,40.00,7,4,17,0.00
2013-10-7,71,61,31,23,20,14,67,23,11,0.00,40.00,12,7,19,0.00
2013-10-8,65,59,49,26,22,20,41,25,18,0.00,40.00,17,13,34,0.00
2013-10-9,57,50,42,41,29,23,81,46,27,0.00,40.00,24,14,40,0.03
2013-10-10,45,36,27,37,32,27,98,88,70,0.00,40.00,14,6,27,0.46
2013-10-11,56,38,24,36,29,23,98,74,36,0.00,40.00,8,4,16,0.01
2013-10-12,60,43,25,31,26,-100,96,60,25,0.00,40.00,12,6,22,0.01
2013-10-13,58,50,33,33,29,23,87,48,32,0.00,40.00,16,10,30,0.00
2013-10-14,57,42,20,29,22,18,91,51,24,0.00,40.00,8,4,17,0.00
2013-10-15,57,38,18,32,20,16,91,56,21,0.00,40.00,11,4,24,0.00
2013-10-16,58,41,20,25,20,16,89,51,20,0.00,40.00,7,4,14,0.00
2013-10-17,61,41,14,24,12,6,89,45,11,0.00,40.00,9,4,17,0.00
2013-10-18,61,49,20,22,13,7,81,31,12,0.00,40.00,13,7,21,0.00
2013-10-19,64,50,16,23,11,-100,80,29,12,0.00,40.00,9,4,17,0.00
2013-10-20,65,57,22,24,14,9,73,23,11,0.00,40.00,12,7,19,0.00
2013-10-21,64,47,19,22,17,14,81,35,16,0.00,40.00,10,5,17,0.00
2013-10-22,68,53,27,26,18,10,70,30,12,0.00,40.00,8,5,16,0.00
2013-10-23,68,56,23,25,18,14,79,29,12,0.00,40.00,9,5,18,0.00